sensor_id;sensor_type;location;lat;lon;timestamp;P1;durP1;ratioP1;P2;durP2;ratioP2
27746;SDS011;15138;51.012;4.692;2023-05-14T00:01:03;39.17;;;27.73;;
27746;SDS011;15138;51.012;4.692;2023-05-14T00:03:33;37.47;;;23.55;;
27746;SDS011;15138;51.012;4.692;2023-05-14T00:06:03;49.20;;;29.45;;
27746;SDS011;15138;51.012;4.692;2023-05-14T00:08:32;31.70;;;19.67;;
27746;SDS011;15138;51.012;4.692;2023-05-14T00:11:00;32.33;;;17.33;;
27746;SDS011;15138;51.012;4.692;2023-05-14T00:13:28;34.10;;;21.38;;
27746;SDS011;15138;51.012;4.692;2023-05-14T00:15:56;27.42;;;17.02;;
27746;SDS011;15138;51.012;4.692;2023-05-14T00:18:24;33.60;;;22.83;;
27746;SDS011;15138;51.012;4.692;2023-05-14T00:20:52;38.58;;;26.10;;
27746;SDS011;15138;51.012;4.692;2023-05-14T00:23:22;30.50;;;18.17;;
27746;SDS011;15138;51.012;4.692;2023-05-14T00:25:50;27.23;;;16.35;;
27746;SDS011;15138;51.012;4.692;2023-05-14T00:28:18;26.50;;;16.30;;
27746;SDS011;15138;51.012;4.692;2023-05-14T00:30:47;30.15;;;18.60;;
27746;SDS011;15138;51.012;4.692;2023-05-14T00:33:15;24.50;;;15.00;;
27746;SDS011;15138;51.012;4.692;2023-05-14T00:35:43;27.15;;;16.45;;
27746;SDS011;15138;51.012;4.692;2023-05-14T00:38:11;27.75;;;15.85;;
27746;SDS011;15138;51.012;4.692;2023-05-14T00:40:44;26.75;;;17.98;;
27746;SDS011;15138;51.012;4.692;2023-05-14T00:43:16;32.80;;;20.02;;
27746;SDS011;15138;51.012;4.692;2023-05-14T00:45:45;22.10;;;15.80;;
27746;SDS011;15138;51.012;4.692;2023-05-14T00:48:16;25.05;;;16.15;;
27746;SDS011;15138;51.012;4.692;2023-05-14T00:50:44;30.00;;;17.45;;
27746;SDS011;15138;51.012;4.692;2023-05-14T00:53:12;27.98;;;17.92;;
27746;SDS011;15138;51.012;4.692;2023-05-14T00:55:41;38.55;;;25.02;;
27746;SDS011;15138;51.012;4.692;2023-05-14T00:58:11;26.85;;;16.75;;
27746;SDS011;15138;51.012;4.692;2023-05-14T01:00:40;29.90;;;18.98;;
27746;SDS011;15138;51.012;4.692;2023-05-14T01:03:08;37.85;;;26.08;;
27746;SDS011;15138;51.012;4.692;2023-05-14T01:05:38;29.58;;;18.42;;
27746;SDS011;15138;51.012;4.692;2023-05-14T01:08:17;31.67;;;19.27;;
27746;SDS011;15138;51.012;4.692;2023-05-14T01:10:52;30.10;;;20.80;;
27746;SDS011;15138;51.012;4.692;2023-05-14T01:13:28;22.02;;;15.23;;
27746;SDS011;15138;51.012;4.692;2023-05-14T01:16:00;29.27;;;17.03;;
27746;SDS011;15138;51.012;4.692;2023-05-14T01:18:30;36.95;;;25.35;;
27746;SDS011;15138;51.012;4.692;2023-05-14T01:20:59;39.80;;;24.35;;
27746;SDS011;15138;51.012;4.692;2023-05-14T01:23:29;38.13;;;24.70;;
27746;SDS011;15138;51.012;4.692;2023-05-14T01:25:57;30.85;;;19.17;;
27746;SDS011;15138;51.012;4.692;2023-05-14T01:28:26;28.60;;;18.35;;
27746;SDS011;15138;51.012;4.692;2023-05-14T01:31:00;45.53;;;29.42;;
27746;SDS011;15138;51.012;4.692;2023-05-14T01:33:33;37.55;;;24.70;;
27746;SDS011;15138;51.012;4.692;2023-05-14T01:36:02;27.23;;;17.35;;
27746;SDS011;15138;51.012;4.692;2023-05-14T01:38:32;29.15;;;19.23;;
27746;SDS011;15138;51.012;4.692;2023-05-14T01:41:02;30.27;;;19.17;;
27746;SDS011;15138;51.012;4.692;2023-05-14T01:43:31;34.10;;;21.98;;
27746;SDS011;15138;51.012;4.692;2023-05-14T01:46:01;27.85;;;17.33;;
27746;SDS011;15138;51.012;4.692;2023-05-14T01:48:30;42.97;;;29.02;;
27746;SDS011;15138;51.012;4.692;2023-05-14T01:50:58;42.67;;;26.90;;
27746;SDS011;15138;51.012;4.692;2023-05-14T01:53:27;33.53;;;23.23;;
27746;SDS011;15138;51.012;4.692;2023-05-14T01:55:57;36.30;;;21.92;;
27746;SDS011;15138;51.012;4.692;2023-05-14T01:58:25;30.27;;;20.63;;
27746;SDS011;15138;51.012;4.692;2023-05-14T02:00:53;43.63;;;26.77;;
27746;SDS011;15138;51.012;4.692;2023-05-14T02:03:21;33.95;;;22.40;;
27746;SDS011;15138;51.012;4.692;2023-05-14T02:05:49;44.67;;;26.98;;
27746;SDS011;15138;51.012;4.692;2023-05-14T02:08:17;57.60;;;38.72;;
27746;SDS011;15138;51.012;4.692;2023-05-14T02:10:45;46.67;;;29.95;;
27746;SDS011;15138;51.012;4.692;2023-05-14T02:13:15;42.53;;;30.10;;
27746;SDS011;15138;51.012;4.692;2023-05-14T02:15:43;35.67;;;24.25;;
27746;SDS011;15138;51.012;4.692;2023-05-14T02:18:11;32.28;;;23.25;;
27746;SDS011;15138;51.012;4.692;2023-05-14T02:20:39;45.88;;;29.48;;
27746;SDS011;15138;51.012;4.692;2023-05-14T02:23:07;39.60;;;25.10;;
27746;SDS011;15138;51.012;4.692;2023-05-14T02:25:36;40.88;;;26.98;;
27746;SDS011;15138;51.012;4.692;2023-05-14T02:28:04;47.92;;;31.80;;
27746;SDS011;15138;51.012;4.692;2023-05-14T02:30:34;34.22;;;21.45;;
27746;SDS011;15138;51.012;4.692;2023-05-14T02:33:02;37.40;;;24.13;;
27746;SDS011;15138;51.012;4.692;2023-05-14T02:35:30;37.55;;;25.55;;
27746;SDS011;15138;51.012;4.692;2023-05-14T02:37:58;46.05;;;31.33;;
27746;SDS011;15138;51.012;4.692;2023-05-14T02:40:26;41.70;;;24.77;;
27746;SDS011;15138;51.012;4.692;2023-05-14T02:42:54;36.58;;;24.73;;
27746;SDS011;15138;51.012;4.692;2023-05-14T02:45:22;33.65;;;22.35;;
27746;SDS011;15138;51.012;4.692;2023-05-14T02:47:51;39.03;;;25.13;;
27746;SDS011;15138;51.012;4.692;2023-05-14T02:50:20;42.53;;;26.25;;
27746;SDS011;15138;51.012;4.692;2023-05-14T02:52:48;43.72;;;28.15;;
27746;SDS011;15138;51.012;4.692;2023-05-14T02:55:16;42.47;;;29.38;;
27746;SDS011;15138;51.012;4.692;2023-05-14T02:57:44;56.10;;;36.42;;
27746;SDS011;15138;51.012;4.692;2023-05-14T03:00:13;54.72;;;34.47;;
27746;SDS011;15138;51.012;4.692;2023-05-14T03:02:42;44.25;;;30.30;;
27746;SDS011;15138;51.012;4.692;2023-05-14T03:05:11;39.42;;;24.35;;
27746;SDS011;15138;51.012;4.692;2023-05-14T03:07:40;36.25;;;25.42;;
27746;SDS011;15138;51.012;4.692;2023-05-14T03:10:08;48.17;;;27.08;;
27746;SDS011;15138;51.012;4.692;2023-05-14T03:12:37;35.90;;;21.63;;
27746;SDS011;15138;51.012;4.692;2023-05-14T03:15:05;34.85;;;22.58;;
27746;SDS011;15138;51.012;4.692;2023-05-14T03:17:34;60.88;;;38.63;;
27746;SDS011;15138;51.012;4.692;2023-05-14T03:20:03;51.85;;;33.97;;
27746;SDS011;15138;51.012;4.692;2023-05-14T03:22:33;47.55;;;32.03;;
27746;SDS011;15138;51.012;4.692;2023-05-14T03:25:01;53.60;;;35.28;;
27746;SDS011;15138;51.012;4.692;2023-05-14T03:27:29;42.53;;;25.25;;
27746;SDS011;15138;51.012;4.692;2023-05-14T03:29:58;29.33;;;19.90;;
27746;SDS011;15138;51.012;4.692;2023-05-14T03:32:26;39.17;;;25.85;;
27746;SDS011;15138;51.012;4.692;2023-05-14T03:34:55;37.40;;;23.10;;
27746;SDS011;15138;51.012;4.692;2023-05-14T03:37:23;42.13;;;27.52;;
27746;SDS011;15138;51.012;4.692;2023-05-14T03:39:53;45.90;;;29.27;;
27746;SDS011;15138;51.012;4.692;2023-05-14T03:42:21;30.45;;;20.35;;
27746;SDS011;15138;51.012;4.692;2023-05-14T03:44:49;53.10;;;34.33;;
27746;SDS011;15138;51.012;4.692;2023-05-14T03:47:17;47.35;;;30.27;;
27746;SDS011;15138;51.012;4.692;2023-05-14T03:49:45;70.43;;;44.08;;
27746;SDS011;15138;51.012;4.692;2023-05-14T03:52:13;33.17;;;20.80;;
27746;SDS011;15138;51.012;4.692;2023-05-14T03:54:41;41.55;;;28.33;;
27746;SDS011;15138;51.012;4.692;2023-05-14T03:57:11;29.67;;;20.15;;
27746;SDS011;15138;51.012;4.692;2023-05-14T03:59:39;56.33;;;36.78;;
27746;SDS011;15138;51.012;4.692;2023-05-14T04:02:07;40.72;;;26.83;;
27746;SDS011;15138;51.012;4.692;2023-05-14T04:04:35;36.13;;;23.48;;
27746;SDS011;15138;51.012;4.692;2023-05-14T04:07:03;35.58;;;24.20;;
27746;SDS011;15138;51.012;4.692;2023-05-14T04:09:31;45.55;;;29.60;;
27746;SDS011;15138;51.012;4.692;2023-05-14T04:11:59;46.67;;;28.80;;
27746;SDS011;15138;51.012;4.692;2023-05-14T04:14:29;44.28;;;26.67;;
27746;SDS011;15138;51.012;4.692;2023-05-14T04:16:57;66.75;;;41.85;;
27746;SDS011;15138;51.012;4.692;2023-05-14T04:19:25;48.63;;;29.88;;
27746;SDS011;15138;51.012;4.692;2023-05-14T04:21:53;68.15;;;41.38;;
27746;SDS011;15138;51.012;4.692;2023-05-14T04:24:21;67.53;;;41.90;;
27746;SDS011;15138;51.012;4.692;2023-05-14T04:26:50;85.57;;;46.22;;
27746;SDS011;15138;51.012;4.692;2023-05-14T04:29:18;71.63;;;40.90;;
27746;SDS011;15138;51.012;4.692;2023-05-14T04:31:47;62.20;;;37.63;;
27746;SDS011;15138;51.012;4.692;2023-05-14T04:34:16;51.28;;;31.75;;
27746;SDS011;15138;51.012;4.692;2023-05-14T04:36:44;62.03;;;33.67;;
27746;SDS011;15138;51.012;4.692;2023-05-14T04:39:12;88.78;;;43.70;;
27746;SDS011;15138;51.012;4.692;2023-05-14T04:41:40;45.70;;;29.42;;
27746;SDS011;15138;51.012;4.692;2023-05-14T04:44:09;47.47;;;28.85;;
27746;SDS011;15138;51.012;4.692;2023-05-14T04:46:38;66.25;;;31.92;;
27746;SDS011;15138;51.012;4.692;2023-05-14T04:49:08;47.95;;;29.40;;
27746;SDS011;15138;51.012;4.692;2023-05-14T04:51:36;39.28;;;24.98;;
27746;SDS011;15138;51.012;4.692;2023-05-14T04:54:05;54.50;;;34.03;;
27746;SDS011;15138;51.012;4.692;2023-05-14T04:56:33;68.97;;;29.45;;
27746;SDS011;15138;51.012;4.692;2023-05-14T04:59:01;43.95;;;27.67;;
27746;SDS011;15138;51.012;4.692;2023-05-14T05:01:29;77.50;;;42.85;;
27746;SDS011;15138;51.012;4.692;2023-05-14T05:03:57;62.20;;;38.88;;
27746;SDS011;15138;51.012;4.692;2023-05-14T05:06:27;55.28;;;32.90;;
27746;SDS011;15138;51.012;4.692;2023-05-14T05:08:55;50.60;;;29.50;;
27746;SDS011;15138;51.012;4.692;2023-05-14T05:11:25;70.03;;;39.05;;
27746;SDS011;15138;51.012;4.692;2023-05-14T05:13:53;54.38;;;34.95;;
27746;SDS011;15138;51.012;4.692;2023-05-14T05:16:21;61.42;;;33.45;;
27746;SDS011;15138;51.012;4.692;2023-05-14T05:18:50;58.78;;;34.92;;
27746;SDS011;15138;51.012;4.692;2023-05-14T05:21:18;67.13;;;34.50;;
27746;SDS011;15138;51.012;4.692;2023-05-14T05:23:47;51.88;;;32.22;;
27746;SDS011;15138;51.012;4.692;2023-05-14T05:26:15;53.65;;;28.25;;
27746;SDS011;15138;51.012;4.692;2023-05-14T05:28:43;72.13;;;40.88;;
27746;SDS011;15138;51.012;4.692;2023-05-14T05:31:11;59.28;;;33.13;;
27746;SDS011;15138;51.012;4.692;2023-05-14T05:33:41;62.15;;;34.15;;
27746;SDS011;15138;51.012;4.692;2023-05-14T05:36:09;79.40;;;44.65;;
27746;SDS011;15138;51.012;4.692;2023-05-14T05:38:37;74.43;;;42.60;;
27746;SDS011;15138;51.012;4.692;2023-05-14T05:41:07;84.32;;;45.72;;
27746;SDS011;15138;51.012;4.692;2023-05-14T05:43:35;64.78;;;34.63;;
27746;SDS011;15138;51.012;4.692;2023-05-14T05:46:03;74.50;;;40.13;;
27746;SDS011;15138;51.012;4.692;2023-05-14T05:48:31;68.10;;;39.25;;
27746;SDS011;15138;51.012;4.692;2023-05-14T05:50:59;49.22;;;27.70;;
27746;SDS011;15138;51.012;4.692;2023-05-14T05:53:27;59.85;;;33.78;;
27746;SDS011;15138;51.012;4.692;2023-05-14T05:55:55;60.95;;;36.88;;
27746;SDS011;15138;51.012;4.692;2023-05-14T05:58:25;75.03;;;40.25;;
27746;SDS011;15138;51.012;4.692;2023-05-14T06:00:53;65.25;;;38.08;;
27746;SDS011;15138;51.012;4.692;2023-05-14T06:03:22;56.08;;;32.95;;
27746;SDS011;15138;51.012;4.692;2023-05-14T06:05:51;67.70;;;37.70;;
27746;SDS011;15138;51.012;4.692;2023-05-14T06:08:19;68.43;;;40.50;;
27746;SDS011;15138;51.012;4.692;2023-05-14T06:10:47;62.75;;;32.50;;
27746;SDS011;15138;51.012;4.692;2023-05-14T06:13:15;65.38;;;35.92;;
27746;SDS011;15138;51.012;4.692;2023-05-14T06:15:45;62.00;;;29.83;;
27746;SDS011;15138;51.012;4.692;2023-05-14T06:18:13;68.97;;;38.08;;
27746;SDS011;15138;51.012;4.692;2023-05-14T06:20:41;59.17;;;29.25;;
27746;SDS011;15138;51.012;4.692;2023-05-14T06:23:09;49.13;;;30.10;;
27746;SDS011;15138;51.012;4.692;2023-05-14T06:25:37;55.70;;;30.70;;
27746;SDS011;15138;51.012;4.692;2023-05-14T06:28:06;68.63;;;39.45;;
27746;SDS011;15138;51.012;4.692;2023-05-14T06:30:34;67.75;;;38.67;;
27746;SDS011;15138;51.012;4.692;2023-05-14T06:33:03;51.10;;;29.85;;
27746;SDS011;15138;51.012;4.692;2023-05-14T06:35:32;56.10;;;30.38;;
27746;SDS011;15138;51.012;4.692;2023-05-14T06:38:00;63.88;;;36.58;;
27746;SDS011;15138;51.012;4.692;2023-05-14T06:40:28;50.42;;;28.95;;
27746;SDS011;15138;51.012;4.692;2023-05-14T06:42:57;57.33;;;30.90;;
27746;SDS011;15138;51.012;4.692;2023-05-14T06:45:25;63.28;;;32.67;;
27746;SDS011;15138;51.012;4.692;2023-05-14T06:47:54;81.13;;;46.33;;
27746;SDS011;15138;51.012;4.692;2023-05-14T06:50:23;74.13;;;40.65;;
27746;SDS011;15138;51.012;4.692;2023-05-14T06:52:51;85.07;;;47.58;;
27746;SDS011;15138;51.012;4.692;2023-05-14T06:55:20;85.22;;;46.97;;
27746;SDS011;15138;51.012;4.692;2023-05-14T06:57:48;79.45;;;41.70;;
27746;SDS011;15138;51.012;4.692;2023-05-14T07:00:16;71.93;;;34.83;;
27746;SDS011;15138;51.012;4.692;2023-05-14T07:02:45;73.97;;;38.08;;
27746;SDS011;15138;51.012;4.692;2023-05-14T07:05:13;88.85;;;46.08;;
27746;SDS011;15138;51.012;4.692;2023-05-14T07:07:43;89.80;;;42.40;;
27746;SDS011;15138;51.012;4.692;2023-05-14T07:10:11;80.70;;;39.88;;
27746;SDS011;15138;51.012;4.692;2023-05-14T07:12:39;71.03;;;37.58;;
27746;SDS011;15138;51.012;4.692;2023-05-14T07:15:08;87.50;;;46.80;;
27746;SDS011;15138;51.012;4.692;2023-05-14T07:17:37;75.03;;;38.10;;
27746;SDS011;15138;51.012;4.692;2023-05-14T07:20:06;79.85;;;40.90;;
27746;SDS011;15138;51.012;4.692;2023-05-14T07:22:34;87.05;;;45.83;;
27746;SDS011;15138;51.012;4.692;2023-05-14T07:25:04;75.32;;;41.42;;
27746;SDS011;15138;51.012;4.692;2023-05-14T07:27:33;72.30;;;40.40;;
27746;SDS011;15138;51.012;4.692;2023-05-14T07:30:01;63.17;;;35.45;;
27746;SDS011;15138;51.012;4.692;2023-05-14T07:32:29;82.72;;;45.85;;
27746;SDS011;15138;51.012;4.692;2023-05-14T07:34:57;62.28;;;34.97;;
27746;SDS011;15138;51.012;4.692;2023-05-14T07:37:27;65.40;;;39.47;;
27746;SDS011;15138;51.012;4.692;2023-05-14T07:39:56;64.53;;;36.38;;
27746;SDS011;15138;51.012;4.692;2023-05-14T07:42:26;79.15;;;46.90;;
27746;SDS011;15138;51.012;4.692;2023-05-14T07:45:02;77.43;;;41.17;;
27746;SDS011;15138;51.012;4.692;2023-05-14T07:47:31;58.97;;;34.38;;
27746;SDS011;15138;51.012;4.692;2023-05-14T07:49:59;71.53;;;39.72;;
27746;SDS011;15138;51.012;4.692;2023-05-14T07:52:27;65.13;;;37.53;;
27746;SDS011;15138;51.012;4.692;2023-05-14T07:54:55;62.80;;;36.55;;
27746;SDS011;15138;51.012;4.692;2023-05-14T07:57:23;71.38;;;41.30;;
27746;SDS011;15138;51.012;4.692;2023-05-14T07:59:53;70.40;;;41.53;;
27746;SDS011;15138;51.012;4.692;2023-05-14T08:02:21;53.17;;;33.30;;
27746;SDS011;15138;51.012;4.692;2023-05-14T08:04:50;80.38;;;44.65;;
27746;SDS011;15138;51.012;4.692;2023-05-14T08:07:18;69.47;;;40.53;;
27746;SDS011;15138;51.012;4.692;2023-05-14T08:09:47;53.22;;;31.63;;
27746;SDS011;15138;51.012;4.692;2023-05-14T08:12:15;79.95;;;44.78;;
27746;SDS011;15138;51.012;4.692;2023-05-14T08:14:45;62.80;;;38.72;;
27746;SDS011;15138;51.012;4.692;2023-05-14T08:17:13;67.15;;;39.13;;
27746;SDS011;15138;51.012;4.692;2023-05-14T08:19:42;52.67;;;30.25;;
27746;SDS011;15138;51.012;4.692;2023-05-14T08:22:11;61.45;;;34.40;;
27746;SDS011;15138;51.012;4.692;2023-05-14T08:24:39;55.35;;;36.13;;
27746;SDS011;15138;51.012;4.692;2023-05-14T08:27:08;49.00;;;25.45;;
27746;SDS011;15138;51.012;4.692;2023-05-14T08:29:36;61.50;;;35.10;;
27746;SDS011;15138;51.012;4.692;2023-05-14T08:32:07;46.28;;;29.65;;
27746;SDS011;15138;51.012;4.692;2023-05-14T08:34:48;52.53;;;31.35;;
27746;SDS011;15138;51.012;4.692;2023-05-14T08:37:17;50.00;;;30.70;;
27746;SDS011;15138;51.012;4.692;2023-05-14T08:39:45;53.55;;;33.75;;
27746;SDS011;15138;51.012;4.692;2023-05-14T08:42:13;50.50;;;31.90;;
27746;SDS011;15138;51.012;4.692;2023-05-14T08:44:46;46.47;;;30.65;;
27746;SDS011;15138;51.012;4.692;2023-05-14T08:47:17;55.20;;;33.25;;
27746;SDS011;15138;51.012;4.692;2023-05-14T08:49:51;46.50;;;28.77;;
27746;SDS011;15138;51.012;4.692;2023-05-14T08:52:22;42.55;;;24.70;;
27746;SDS011;15138;51.012;4.692;2023-05-14T08:54:50;37.72;;;24.40;;
27746;SDS011;15138;51.012;4.692;2023-05-14T08:57:20;45.45;;;30.15;;
27746;SDS011;15138;51.012;4.692;2023-05-14T08:59:51;43.88;;;24.55;;
27746;SDS011;15138;51.012;4.692;2023-05-14T09:02:22;41.45;;;27.73;;
27746;SDS011;15138;51.012;4.692;2023-05-14T09:04:54;42.25;;;24.40;;
27746;SDS011;15138;51.012;4.692;2023-05-14T09:07:23;37.75;;;24.55;;
27746;SDS011;15138;51.012;4.692;2023-05-14T09:09:52;43.25;;;27.35;;
27746;SDS011;15138;51.012;4.692;2023-05-14T09:12:20;55.22;;;34.53;;
27746;SDS011;15138;51.012;4.692;2023-05-14T09:14:49;49.42;;;33.75;;
27746;SDS011;15138;51.012;4.692;2023-05-14T09:17:18;42.15;;;24.80;;
27746;SDS011;15138;51.012;4.692;2023-05-14T09:19:47;40.97;;;29.67;;
27746;SDS011;15138;51.012;4.692;2023-05-14T09:22:18;40.83;;;25.80;;
27746;SDS011;15138;51.012;4.692;2023-05-14T09:25:00;35.25;;;24.23;;
27746;SDS011;15138;51.012;4.692;2023-05-14T09:27:32;39.90;;;26.08;;
27746;SDS011;15138;51.012;4.692;2023-05-14T09:30:08;32.50;;;23.00;;
27746;SDS011;15138;51.012;4.692;2023-05-14T09:32:38;39.80;;;24.10;;
27746;SDS011;15138;51.012;4.692;2023-05-14T09:35:14;37.70;;;23.17;;
27746;SDS011;15138;51.012;4.692;2023-05-14T09:37:44;24.80;;;15.73;;
27746;SDS011;15138;51.012;4.692;2023-05-14T09:40:14;30.17;;;19.83;;
27746;SDS011;15138;51.012;4.692;2023-05-14T09:42:43;28.23;;;18.77;;
27746;SDS011;15138;51.012;4.692;2023-05-14T09:45:12;34.30;;;22.05;;
27746;SDS011;15138;51.012;4.692;2023-05-14T09:47:40;41.10;;;25.13;;
27746;SDS011;15138;51.012;4.692;2023-05-14T09:50:10;32.83;;;21.88;;
27746;SDS011;15138;51.012;4.692;2023-05-14T09:52:40;42.75;;;29.83;;
27746;SDS011;15138;51.012;4.692;2023-05-14T09:55:08;47.85;;;31.63;;
27746;SDS011;15138;51.012;4.692;2023-05-14T09:57:36;47.15;;;28.77;;
27746;SDS011;15138;51.012;4.692;2023-05-14T10:00:05;43.65;;;28.33;;
27746;SDS011;15138;51.012;4.692;2023-05-14T10:02:36;56.92;;;37.90;;
27746;SDS011;15138;51.012;4.692;2023-05-14T10:05:06;37.15;;;25.55;;
27746;SDS011;15138;51.012;4.692;2023-05-14T10:07:37;35.97;;;24.58;;
27746;SDS011;15138;51.012;4.692;2023-05-14T10:10:09;37.35;;;27.33;;
27746;SDS011;15138;51.012;4.692;2023-05-14T10:12:43;41.33;;;26.80;;
27746;SDS011;15138;51.012;4.692;2023-05-14T10:15:18;33.40;;;22.27;;
27746;SDS011;15138;51.012;4.692;2023-05-14T10:17:52;38.85;;;21.27;;
27746;SDS011;15138;51.012;4.692;2023-05-14T10:20:23;35.80;;;24.10;;
27746;SDS011;15138;51.012;4.692;2023-05-14T10:22:54;36.97;;;20.55;;
27746;SDS011;15138;51.012;4.692;2023-05-14T10:25:23;25.77;;;14.70;;
27746;SDS011;15138;51.012;4.692;2023-05-14T10:27:51;27.85;;;20.92;;
27746;SDS011;15138;51.012;4.692;2023-05-14T10:30:20;34.05;;;22.83;;
27746;SDS011;15138;51.012;4.692;2023-05-14T10:33:00;25.42;;;19.08;;
27746;SDS011;15138;51.012;4.692;2023-05-14T10:35:55;34.15;;;21.50;;
27746;SDS011;15138;51.012;4.692;2023-05-14T10:38:28;28.27;;;20.63;;
27746;SDS011;15138;51.012;4.692;2023-05-14T10:41:00;21.70;;;14.98;;
27746;SDS011;15138;51.012;4.692;2023-05-14T10:43:29;24.23;;;15.77;;
27746;SDS011;15138;51.012;4.692;2023-05-14T10:46:01;24.52;;;16.95;;
27746;SDS011;15138;51.012;4.692;2023-05-14T10:48:29;21.55;;;15.40;;
27746;SDS011;15138;51.012;4.692;2023-05-14T10:50:58;27.80;;;17.17;;
27746;SDS011;15138;51.012;4.692;2023-05-14T10:53:33;28.13;;;19.98;;
27746;SDS011;15138;51.012;4.692;2023-05-14T10:56:02;25.33;;;16.08;;
27746;SDS011;15138;51.012;4.692;2023-05-14T10:58:34;30.25;;;18.38;;
27746;SDS011;15138;51.012;4.692;2023-05-14T11:01:04;26.25;;;17.45;;
27746;SDS011;15138;51.012;4.692;2023-05-14T11:03:37;21.35;;;17.23;;
27746;SDS011;15138;51.012;4.692;2023-05-14T11:06:08;21.55;;;15.68;;
27746;SDS011;15138;51.012;4.692;2023-05-14T11:08:38;30.33;;;20.48;;
27746;SDS011;15138;51.012;4.692;2023-05-14T11:11:07;22.13;;;15.30;;
27746;SDS011;15138;51.012;4.692;2023-05-14T11:13:36;24.40;;;17.15;;
27746;SDS011;15138;51.012;4.692;2023-05-14T11:16:05;23.77;;;16.08;;
27746;SDS011;15138;51.012;4.692;2023-05-14T11:18:51;24.15;;;16.10;;
27746;SDS011;15138;51.012;4.692;2023-05-14T11:21:21;30.92;;;18.67;;
27746;SDS011;15138;51.012;4.692;2023-05-14T11:23:50;25.25;;;15.48;;
27746;SDS011;15138;51.012;4.692;2023-05-14T11:26:20;31.33;;;19.63;;
27746;SDS011;15138;51.012;4.692;2023-05-14T11:28:50;30.52;;;19.85;;
27746;SDS011;15138;51.012;4.692;2023-05-14T11:31:18;29.63;;;21.05;;
27746;SDS011;15138;51.012;4.692;2023-05-14T11:33:50;27.65;;;17.77;;
27746;SDS011;15138;51.012;4.692;2023-05-14T11:36:19;30.20;;;21.48;;
27746;SDS011;15138;51.012;4.692;2023-05-14T11:38:48;24.63;;;17.58;;
27746;SDS011;15138;51.012;4.692;2023-05-14T11:41:18;27.42;;;18.08;;
27746;SDS011;15138;51.012;4.692;2023-05-14T11:43:48;25.88;;;19.95;;
27746;SDS011;15138;51.012;4.692;2023-05-14T11:46:16;28.42;;;18.55;;
27746;SDS011;15138;51.012;4.692;2023-05-14T11:48:45;31.05;;;18.08;;
27746;SDS011;15138;51.012;4.692;2023-05-14T11:51:13;32.97;;;21.65;;
27746;SDS011;15138;51.012;4.692;2023-05-14T11:53:42;28.65;;;20.08;;
27746;SDS011;15138;51.012;4.692;2023-05-14T11:56:12;31.95;;;19.90;;
27746;SDS011;15138;51.012;4.692;2023-05-14T11:58:45;27.30;;;18.00;;
27746;SDS011;15138;51.012;4.692;2023-05-14T12:01:14;32.83;;;20.48;;
27746;SDS011;15138;51.012;4.692;2023-05-14T12:03:42;26.83;;;18.42;;
27746;SDS011;15138;51.012;4.692;2023-05-14T12:06:11;24.58;;;15.93;;
27746;SDS011;15138;51.012;4.692;2023-05-14T12:08:39;31.50;;;17.30;;
27746;SDS011;15138;51.012;4.692;2023-05-14T12:11:07;27.10;;;19.75;;
27746;SDS011;15138;51.012;4.692;2023-05-14T12:13:35;27.02;;;20.50;;
27746;SDS011;15138;51.012;4.692;2023-05-14T12:16:05;24.00;;;18.40;;
27746;SDS011;15138;51.012;4.692;2023-05-14T12:18:34;22.90;;;15.38;;
27746;SDS011;15138;51.012;4.692;2023-05-14T12:21:02;26.77;;;18.38;;
27746;SDS011;15138;51.012;4.692;2023-05-14T12:23:33;26.35;;;19.33;;
27746;SDS011;15138;51.012;4.692;2023-05-14T12:26:02;22.70;;;16.85;;
27746;SDS011;15138;51.012;4.692;2023-05-14T12:28:32;22.77;;;17.25;;
27746;SDS011;15138;51.012;4.692;2023-05-14T12:31:03;24.33;;;17.88;;
27746;SDS011;15138;51.012;4.692;2023-05-14T12:33:33;23.92;;;18.45;;
27746;SDS011;15138;51.012;4.692;2023-05-14T12:36:01;21.00;;;16.58;;
27746;SDS011;15138;51.012;4.692;2023-05-14T12:38:46;26.08;;;19.85;;
27746;SDS011;15138;51.012;4.692;2023-05-14T12:41:15;21.17;;;16.27;;
27746;SDS011;15138;51.012;4.692;2023-05-14T12:43:43;21.40;;;16.10;;
27746;SDS011;15138;51.012;4.692;2023-05-14T12:46:15;17.73;;;14.73;;
27746;SDS011;15138;51.012;4.692;2023-05-14T12:48:43;22.40;;;15.02;;
27746;SDS011;15138;51.012;4.692;2023-05-14T12:51:12;24.35;;;17.30;;
27746;SDS011;15138;51.012;4.692;2023-05-14T12:53:40;22.55;;;17.88;;
27746;SDS011;15138;51.012;4.692;2023-05-14T12:56:08;21.83;;;16.23;;
27746;SDS011;15138;51.012;4.692;2023-05-14T12:58:36;21.83;;;16.08;;
27746;SDS011;15138;51.012;4.692;2023-05-14T13:01:04;25.58;;;19.30;;
27746;SDS011;15138;51.012;4.692;2023-05-14T13:03:34;19.27;;;14.98;;
27746;SDS011;15138;51.012;4.692;2023-05-14T13:06:02;20.83;;;14.90;;
27746;SDS011;15138;51.012;4.692;2023-05-14T13:08:30;22.75;;;15.57;;
27746;SDS011;15138;51.012;4.692;2023-05-14T13:10:59;21.17;;;14.05;;
27746;SDS011;15138;51.012;4.692;2023-05-14T13:13:27;20.55;;;12.10;;
27746;SDS011;15138;51.012;4.692;2023-05-14T13:15:55;23.05;;;18.33;;
27746;SDS011;15138;51.012;4.692;2023-05-14T13:18:23;21.75;;;13.70;;
27746;SDS011;15138;51.012;4.692;2023-05-14T13:20:53;21.52;;;15.27;;
27746;SDS011;15138;51.012;4.692;2023-05-14T13:23:22;18.63;;;14.98;;
27746;SDS011;15138;51.012;4.692;2023-05-14T13:25:50;17.98;;;13.45;;
27746;SDS011;15138;51.012;4.692;2023-05-14T13:28:18;16.17;;;12.43;;
27746;SDS011;15138;51.012;4.692;2023-05-14T13:31:01;23.35;;;15.15;;
27746;SDS011;15138;51.012;4.692;2023-05-14T13:33:32;16.65;;;12.77;;
27746;SDS011;15138;51.012;4.692;2023-05-14T13:36:02;16.83;;;11.73;;
27746;SDS011;15138;51.012;4.692;2023-05-14T13:38:31;17.98;;;11.68;;
27746;SDS011;15138;51.012;4.692;2023-05-14T13:40:59;17.38;;;11.60;;
27746;SDS011;15138;51.012;4.692;2023-05-14T13:43:28;22.08;;;11.88;;
27746;SDS011;15138;51.012;4.692;2023-05-14T13:45:56;15.00;;;11.43;;
27746;SDS011;15138;51.012;4.692;2023-05-14T13:48:25;14.55;;;10.18;;
27746;SDS011;15138;51.012;4.692;2023-05-14T13:50:53;20.90;;;11.10;;
27746;SDS011;15138;51.012;4.692;2023-05-14T13:53:23;21.67;;;13.38;;
27746;SDS011;15138;51.012;4.692;2023-05-14T13:55:51;18.15;;;12.15;;
27746;SDS011;15138;51.012;4.692;2023-05-14T13:58:22;21.42;;;13.68;;
27746;SDS011;15138;51.012;4.692;2023-05-14T14:00:50;18.02;;;12.43;;
27746;SDS011;15138;51.012;4.692;2023-05-14T14:03:19;16.73;;;10.70;;
27746;SDS011;15138;51.012;4.692;2023-05-14T14:05:47;14.98;;;9.50;;
27746;SDS011;15138;51.012;4.692;2023-05-14T14:08:16;17.73;;;10.77;;
27746;SDS011;15138;51.012;4.692;2023-05-14T14:10:51;16.02;;;10.55;;
27746;SDS011;15138;51.012;4.692;2023-05-14T14:13:20;13.48;;;9.82;;
27746;SDS011;15138;51.012;4.692;2023-05-14T14:15:49;13.18;;;9.93;;
27746;SDS011;15138;51.012;4.692;2023-05-14T14:18:18;18.83;;;13.60;;
27746;SDS011;15138;51.012;4.692;2023-05-14T14:20:46;16.60;;;10.07;;
27746;SDS011;15138;51.012;4.692;2023-05-14T14:23:14;15.77;;;7.07;;
27746;SDS011;15138;51.012;4.692;2023-05-14T14:25:42;16.52;;;9.35;;
27746;SDS011;15138;51.012;4.692;2023-05-14T14:28:12;20.83;;;12.20;;
27746;SDS011;15138;51.012;4.692;2023-05-14T14:30:40;17.27;;;9.98;;
27746;SDS011;15138;51.012;4.692;2023-05-14T14:33:09;18.58;;;11.35;;